sensor_id;sensor_type;location;lat;lon;timestamp;P1;durP1;ratioP1;P2;durP2;ratioP2
36797;SDS011;22748;8.426;99.512;2023-06-04T00:01:17;13.68;;;8.02;;
36797;SDS011;22748;8.426;99.512;2023-06-04T00:03:49;16.48;;;8.00;;
36797;SDS011;22748;8.426;99.512;2023-06-04T00:06:20;19.08;;;8.48;;
36797;SDS011;22748;8.426;99.512;2023-06-04T00:11:24;17.15;;;8.80;;
36797;SDS011;22748;8.426;99.512;2023-06-04T00:13:55;17.58;;;8.05;;
36797;SDS011;22748;8.426;99.512;2023-06-04T00:18:55;15.60;;;7.22;;
36797;SDS011;22748;8.426;99.512;2023-06-04T00:21:28;13.75;;;7.35;;
36797;SDS011;22748;8.426;99.512;2023-06-04T00:26:29;17.33;;;7.18;;
36797;SDS011;22748;8.426;99.512;2023-06-04T00:29:01;12.82;;;6.15;;
36797;SDS011;22748;8.426;99.512;2023-06-04T00:34:01;88.37;;;10.67;;
36797;SDS011;22748;8.426;99.512;2023-06-04T00:36:33;88.85;;;17.02;;
36797;SDS011;22748;8.426;99.512;2023-06-04T00:39:05;31.60;;;9.48;;
36797;SDS011;22748;8.426;99.512;2023-06-04T00:41:37;15.43;;;7.72;;
36797;SDS011;22748;8.426;99.512;2023-06-04T00:44:08;19.73;;;7.82;;
36797;SDS011;22748;8.426;99.512;2023-06-04T00:46:39;13.45;;;7.20;;
36797;SDS011;22748;8.426;99.512;2023-06-04T00:49:12;19.63;;;7.45;;
36797;SDS011;22748;8.426;99.512;2023-06-04T00:51:42;10.15;;;5.43;;
36797;SDS011;22748;8.426;99.512;2023-06-04T00:54:16;8.70;;;5.38;;
36797;SDS011;22748;8.426;99.512;2023-06-04T00:56:50;15.50;;;5.93;;
36797;SDS011;22748;8.426;99.512;2023-06-04T00:59:21;13.57;;;5.88;;
36797;SDS011;22748;8.426;99.512;2023-06-04T01:01:54;10.75;;;4.78;;
36797;SDS011;22748;8.426;99.512;2023-06-04T01:04:33;9.57;;;5.20;;
36797;SDS011;22748;8.426;99.512;2023-06-04T01:07:08;10.93;;;5.45;;
36797;SDS011;22748;8.426;99.512;2023-06-04T01:09:43;9.98;;;5.32;;
36797;SDS011;22748;8.426;99.512;2023-06-04T01:12:14;15.77;;;6.05;;
36797;SDS011;22748;8.426;99.512;2023-06-04T01:14:45;13.50;;;5.30;;
36797;SDS011;22748;8.426;99.512;2023-06-04T01:17:15;18.92;;;6.55;;
36797;SDS011;22748;8.426;99.512;2023-06-04T01:20:00;11.93;;;5.45;;
36797;SDS011;22748;8.426;99.512;2023-06-04T01:22:39;14.27;;;6.72;;
36797;SDS011;22748;8.426;99.512;2023-06-04T01:25:18;13.10;;;7.97;;
36797;SDS011;22748;8.426;99.512;2023-06-04T01:27:53;16.88;;;7.15;;
36797;SDS011;22748;8.426;99.512;2023-06-04T01:30:28;15.18;;;7.90;;
36797;SDS011;22748;8.426;99.512;2023-06-04T01:33:00;14.68;;;7.97;;
36797;SDS011;22748;8.426;99.512;2023-06-04T01:35:32;14.63;;;7.93;;
36797;SDS011;22748;8.426;99.512;2023-06-04T01:38:03;25.95;;;9.95;;
36797;SDS011;22748;8.426;99.512;2023-06-04T01:40:35;25.10;;;10.65;;
36797;SDS011;22748;8.426;99.512;2023-06-04T01:43:07;15.90;;;8.85;;
36797;SDS011;22748;8.426;99.512;2023-06-04T01:45:41;15.27;;;6.28;;
36797;SDS011;22748;8.426;99.512;2023-06-04T01:48:15;17.10;;;4.35;;
36797;SDS011;22748;8.426;99.512;2023-06-04T01:50:46;11.60;;;4.82;;
36797;SDS011;22748;8.426;99.512;2023-06-04T01:53:17;12.40;;;4.85;;
36797;SDS011;22748;8.426;99.512;2023-06-04T01:55:49;12.70;;;4.65;;
36797;SDS011;22748;8.426;99.512;2023-06-04T01:58:19;13.25;;;5.10;;
36797;SDS011;22748;8.426;99.512;2023-06-04T02:00:54;24.55;;;5.57;;
36797;SDS011;22748;8.426;99.512;2023-06-04T02:03:30;44.45;;;10.45;;
36797;SDS011;22748;8.426;99.512;2023-06-04T02:06:04;21.63;;;7.22;;
36797;SDS011;22748;8.426;99.512;2023-06-04T02:08:35;10.02;;;4.90;;
36797;SDS011;22748;8.426;99.512;2023-06-04T02:11:10;13.32;;;4.60;;
36797;SDS011;22748;8.426;99.512;2023-06-04T02:13:41;20.25;;;5.70;;
36797;SDS011;22748;8.426;99.512;2023-06-04T02:18:41;11.45;;;3.50;;
36797;SDS011;22748;8.426;99.512;2023-06-04T02:21:12;11.88;;;3.97;;
36797;SDS011;22748;8.426;99.512;2023-06-04T02:23:43;19.10;;;4.30;;
36797;SDS011;22748;8.426;99.512;2023-06-04T02:28:46;9.88;;;3.50;;
36797;SDS011;22748;8.426;99.512;2023-06-04T02:31:16;10.68;;;3.25;;
36797;SDS011;22748;8.426;99.512;2023-06-04T02:33:48;11.77;;;3.83;;
36797;SDS011;22748;8.426;99.512;2023-06-04T02:38:49;18.08;;;6.57;;
36797;SDS011;22748;8.426;99.512;2023-06-04T02:41:22;16.30;;;5.63;;
36797;SDS011;22748;8.426;99.512;2023-06-04T02:43:53;13.48;;;4.88;;
36797;SDS011;22748;8.426;99.512;2023-06-04T02:46:24;13.65;;;3.58;;
36797;SDS011;22748;8.426;99.512;2023-06-04T02:48:55;13.97;;;2.93;;
36797;SDS011;22748;8.426;99.512;2023-06-04T02:53:54;7.85;;;3.05;;
36797;SDS011;22748;8.426;99.512;2023-06-04T02:56:27;15.90;;;4.23;;
36797;SDS011;22748;8.426;99.512;2023-06-04T02:58:58;10.07;;;3.65;;
36797;SDS011;22748;8.426;99.512;2023-06-04T03:01:29;9.02;;;3.50;;
36797;SDS011;22748;8.426;99.512;2023-06-04T03:04:00;14.32;;;3.80;;
36797;SDS011;22748;8.426;99.512;2023-06-04T03:09:00;13.48;;;3.72;;
36797;SDS011;22748;8.426;99.512;2023-06-04T03:11:36;18.98;;;4.60;;
36797;SDS011;22748;8.426;99.512;2023-06-04T03:14:07;10.82;;;3.85;;
36797;SDS011;22748;8.426;99.512;2023-06-04T03:16:37;13.60;;;3.75;;
36797;SDS011;22748;8.426;99.512;2023-06-04T03:19:12;12.38;;;3.45;;
36797;SDS011;22748;8.426;99.512;2023-06-04T03:21:44;12.30;;;4.03;;
36797;SDS011;22748;8.426;99.512;2023-06-04T03:24:19;10.73;;;3.58;;
36797;SDS011;22748;8.426;99.512;2023-06-04T03:26:57;17.58;;;3.92;;
36797;SDS011;22748;8.426;99.512;2023-06-04T03:29:28;13.88;;;3.63;;
36797;SDS011;22748;8.426;99.512;2023-06-04T03:34:28;15.27;;;3.80;;
36797;SDS011;22748;8.426;99.512;2023-06-04T03:39:30;8.77;;;2.65;;
36797;SDS011;22748;8.426;99.512;2023-06-04T03:42:04;25.65;;;4.93;;
36797;SDS011;22748;8.426;99.512;2023-06-04T03:44:35;12.43;;;3.30;;
36797;SDS011;22748;8.426;99.512;2023-06-04T03:47:05;9.07;;;3.13;;
36797;SDS011;22748;8.426;99.512;2023-06-04T03:49:36;8.80;;;3.40;;
36797;SDS011;22748;8.426;99.512;2023-06-04T03:54:41;11.95;;;3.50;;
36797;SDS011;22748;8.426;99.512;2023-06-04T03:57:18;10.82;;;4.15;;
36797;SDS011;22748;8.426;99.512;2023-06-04T03:59:49;17.58;;;5.18;;
36797;SDS011;22748;8.426;99.512;2023-06-04T04:02:19;14.57;;;4.28;;
36797;SDS011;22748;8.426;99.512;2023-06-04T04:04:50;18.65;;;4.55;;
36797;SDS011;22748;8.426;99.512;2023-06-04T04:07:24;8.30;;;3.25;;
36797;SDS011;22748;8.426;99.512;2023-06-04T04:12:26;5.78;;;2.60;;
36797;SDS011;22748;8.426;99.512;2023-06-04T04:14:56;9.95;;;2.47;;
36797;SDS011;22748;8.426;99.512;2023-06-04T04:17:26;4.87;;;2.40;;
36797;SDS011;22748;8.426;99.512;2023-06-04T04:19:57;7.95;;;2.63;;
36797;SDS011;22748;8.426;99.512;2023-06-04T04:22:33;5.03;;;2.30;;
36797;SDS011;22748;8.426;99.512;2023-06-04T04:25:03;9.52;;;2.90;;
36797;SDS011;22748;8.426;99.512;2023-06-04T04:27:37;8.63;;;3.28;;
36797;SDS011;22748;8.426;99.512;2023-06-04T04:30:07;8.93;;;3.00;;
36797;SDS011;22748;8.426;99.512;2023-06-04T04:32:38;6.55;;;2.60;;
36797;SDS011;22748;8.426;99.512;2023-06-04T04:35:15;5.85;;;2.58;;
36797;SDS011;22748;8.426;99.512;2023-06-04T04:37:46;9.13;;;3.10;;
36797;SDS011;22748;8.426;99.512;2023-06-04T04:42:47;9.55;;;3.70;;
36797;SDS011;22748;8.426;99.512;2023-06-04T04:45:18;8.27;;;3.20;;
36797;SDS011;22748;8.426;99.512;2023-06-04T04:47:49;6.85;;;3.08;;
36797;SDS011;22748;8.426;99.512;2023-06-04T04:50:19;10.75;;;3.08;;
36797;SDS011;22748;8.426;99.512;2023-06-04T04:52:56;9.30;;;3.40;;
36797;SDS011;22748;8.426;99.512;2023-06-04T04:55:27;9.30;;;3.28;;
36797;SDS011;22748;8.426;99.512;2023-06-04T04:58:00;9.32;;;3.95;;
36797;SDS011;22748;8.426;99.512;2023-06-04T05:00:30;10.77;;;4.03;;
36797;SDS011;22748;8.426;99.512;2023-06-04T05:03:01;15.68;;;5.72;;
36797;SDS011;22748;8.426;99.512;2023-06-04T05:05:35;10.95;;;4.82;;
36797;SDS011;22748;8.426;99.512;2023-06-04T05:08:10;9.82;;;3.65;;
36797;SDS011;22748;8.426;99.512;2023-06-04T05:10:42;7.20;;;3.40;;
36797;SDS011;22748;8.426;99.512;2023-06-04T05:13:15;7.22;;;3.22;;
36797;SDS011;22748;8.426;99.512;2023-06-04T05:15:47;8.48;;;3.20;;
36797;SDS011;22748;8.426;99.512;2023-06-04T05:18:19;5.75;;;3.65;;
36797;SDS011;22748;8.426;99.512;2023-06-04T05:20:55;8.30;;;3.15;;
36797;SDS011;22748;8.426;99.512;2023-06-04T05:23:27;9.43;;;3.22;;
36797;SDS011;22748;8.426;99.512;2023-06-04T05:25:59;11.82;;;3.33;;
36797;SDS011;22748;8.426;99.512;2023-06-04T05:28:33;8.43;;;2.97;;
36797;SDS011;22748;8.426;99.512;2023-06-04T05:31:05;5.93;;;2.47;;
36797;SDS011;22748;8.426;99.512;2023-06-04T05:33:35;8.88;;;3.80;;
36797;SDS011;22748;8.426;99.512;2023-06-04T05:36:06;6.00;;;2.57;;
36797;SDS011;22748;8.426;99.512;2023-06-04T05:38:43;6.57;;;2.92;;
36797;SDS011;22748;8.426;99.512;2023-06-04T05:43:47;7.78;;;2.50;;
36797;SDS011;22748;8.426;99.512;2023-06-04T05:46:19;11.02;;;4.10;;
36797;SDS011;22748;8.426;99.512;2023-06-04T05:48:50;13.27;;;3.88;;
36797;SDS011;22748;8.426;99.512;2023-06-04T05:51:22;8.88;;;3.60;;
36797;SDS011;22748;8.426;99.512;2023-06-04T05:53:52;9.88;;;5.30;;
36797;SDS011;22748;8.426;99.512;2023-06-04T05:56:22;8.45;;;2.70;;
36797;SDS011;22748;8.426;99.512;2023-06-04T05:58:54;5.55;;;2.65;;
36797;SDS011;22748;8.426;99.512;2023-06-04T06:01:24;4.68;;;2.58;;
36797;SDS011;22748;8.426;99.512;2023-06-04T06:04:01;4.72;;;2.40;;
36797;SDS011;22748;8.426;99.512;2023-06-04T06:06:32;7.82;;;2.67;;
36797;SDS011;22748;8.426;99.512;2023-06-04T06:09:05;9.13;;;3.88;;
36797;SDS011;22748;8.426;99.512;2023-06-04T06:11:35;5.28;;;2.50;;
36797;SDS011;22748;8.426;99.512;2023-06-04T06:14:14;6.15;;;2.75;;
36797;SDS011;22748;8.426;99.512;2023-06-04T06:16:49;4.47;;;2.42;;
36797;SDS011;22748;8.426;99.512;2023-06-04T06:19:24;7.30;;;2.53;;
36797;SDS011;22748;8.426;99.512;2023-06-04T06:21:56;4.57;;;2.25;;
36797;SDS011;22748;8.426;99.512;2023-06-04T06:26:56;11.32;;;4.00;;
36797;SDS011;22748;8.426;99.512;2023-06-04T06:29:28;3.67;;;1.75;;
36797;SDS011;22748;8.426;99.512;2023-06-04T06:32:06;5.22;;;2.30;;
36797;SDS011;22748;8.426;99.512;2023-06-04T06:34:37;5.43;;;2.80;;
36797;SDS011;22748;8.426;99.512;2023-06-04T06:39:38;3.67;;;2.05;;
36797;SDS011;22748;8.426;99.512;2023-06-04T06:42:08;7.75;;;2.33;;
36797;SDS011;22748;8.426;99.512;2023-06-04T06:44:40;9.20;;;3.58;;
36797;SDS011;22748;8.426;99.512;2023-06-04T06:47:10;5.20;;;2.60;;
36797;SDS011;22748;8.426;99.512;2023-06-04T06:52:11;7.43;;;2.65;;
36797;SDS011;22748;8.426;99.512;2023-06-04T06:54:46;4.47;;;2.17;;
36797;SDS011;22748;8.426;99.512;2023-06-04T06:57:19;4.65;;;2.45;;
36797;SDS011;22748;8.426;99.512;2023-06-04T06:59:52;5.07;;;3.30;;
36797;SDS011;22748;8.426;99.512;2023-06-04T07:02:22;7.97;;;2.72;;
36797;SDS011;22748;8.426;99.512;2023-06-04T07:04:55;5.25;;;3.40;;
36797;SDS011;22748;8.426;99.512;2023-06-04T07:07:33;6.38;;;3.00;;
36797;SDS011;22748;8.426;99.512;2023-06-04T07:10:04;3.42;;;2.15;;
36797;SDS011;22748;8.426;99.512;2023-06-04T07:12:35;4.63;;;2.53;;
36797;SDS011;22748;8.426;99.512;2023-06-04T07:15:09;7.43;;;2.65;;
36797;SDS011;22748;8.426;99.512;2023-06-04T07:17:41;7.38;;;2.40;;
36797;SDS011;22748;8.426;99.512;2023-06-04T07:20:15;6.32;;;2.58;;
36797;SDS011;22748;8.426;99.512;2023-06-04T07:22:47;4.45;;;2.08;;
36797;SDS011;22748;8.426;99.512;2023-06-04T07:25:19;5.95;;;2.20;;
36797;SDS011;22748;8.426;99.512;2023-06-04T07:27:51;6.53;;;2.50;;
36797;SDS011;22748;8.426;99.512;2023-06-04T07:30:26;5.38;;;2.20;;
36797;SDS011;22748;8.426;99.512;2023-06-04T07:32:56;3.08;;;2.03;;
36797;SDS011;22748;8.426;99.512;2023-06-04T07:35:27;4.50;;;2.10;;
36797;SDS011;22748;8.426;99.512;2023-06-04T07:37:57;2.60;;;1.90;;
36797;SDS011;22748;8.426;99.512;2023-06-04T07:40:31;3.55;;;2.30;;
36797;SDS011;22748;8.426;99.512;2023-06-04T07:43:04;6.03;;;2.70;;
36797;SDS011;22748;8.426;99.512;2023-06-04T07:48:08;5.82;;;2.58;;
36797;SDS011;22748;8.426;99.512;2023-06-04T07:50:41;3.78;;;2.50;;
36797;SDS011;22748;8.426;99.512;2023-06-04T07:55:40;4.50;;;2.17;;
36797;SDS011;22748;8.426;99.512;2023-06-04T07:58:11;5.75;;;2.03;;
36797;SDS011;22748;8.426;99.512;2023-06-04T08:00:44;5.28;;;2.33;;
36797;SDS011;22748;8.426;99.512;2023-06-04T08:03:17;5.85;;;2.47;;
36797;SDS011;22748;8.426;99.512;2023-06-04T08:05:48;3.10;;;1.90;;
36797;SDS011;22748;8.426;99.512;2023-06-04T08:08:19;5.40;;;2.47;;
36797;SDS011;22748;8.426;99.512;2023-06-04T08:10:49;4.43;;;1.80;;
36797;SDS011;22748;8.426;99.512;2023-06-04T08:13:19;5.63;;;1.90;;
36797;SDS011;22748;8.426;99.512;2023-06-04T08:15:50;7.57;;;2.03;;
36797;SDS011;22748;8.426;99.512;2023-06-04T08:18:21;4.65;;;2.10;;
36797;SDS011;22748;8.426;99.512;2023-06-04T08:20:54;5.13;;;2.20;;
36797;SDS011;22748;8.426;99.512;2023-06-04T08:25:53;8.70;;;3.67;;
36797;SDS011;22748;8.426;99.512;2023-06-04T08:28:24;12.73;;;4.83;;
36797;SDS011;22748;8.426;99.512;2023-06-04T08:30:56;6.05;;;3.47;;
36797;SDS011;22748;8.426;99.512;2023-06-04T08:33:27;7.45;;;2.88;;
36797;SDS011;22748;8.426;99.512;2023-06-04T08:36:00;5.68;;;2.80;;
36797;SDS011;22748;8.426;99.512;2023-06-04T08:38:32;5.75;;;2.80;;
36797;SDS011;22748;8.426;99.512;2023-06-04T08:41:07;6.32;;;2.90;;
36797;SDS011;22748;8.426;99.512;2023-06-04T08:43:42;7.63;;;3.28;;
36797;SDS011;22748;8.426;99.512;2023-06-04T08:46:17;6.45;;;3.08;;
36797;SDS011;22748;8.426;99.512;2023-06-04T08:48:49;6.72;;;2.53;;
36797;SDS011;22748;8.426;99.512;2023-06-04T08:51:20;4.15;;;2.53;;
36797;SDS011;22748;8.426;99.512;2023-06-04T08:53:54;2.47;;;1.90;;
36797;SDS011;22748;8.426;99.512;2023-06-04T08:56:26;4.05;;;1.95;;
36797;SDS011;22748;8.426;99.512;2023-06-04T08:59:00;4.57;;;2.40;;
36797;SDS011;22748;8.426;99.512;2023-06-04T09:01:35;5.85;;;2.30;;
36797;SDS011;22748;8.426;99.512;2023-06-04T09:04:08;4.00;;;2.00;;
36797;SDS011;22748;8.426;99.512;2023-06-04T09:06:41;2.15;;;1.50;;
36797;SDS011;22748;8.426;99.512;2023-06-04T09:09:12;4.70;;;1.90;;
36797;SDS011;22748;8.426;99.512;2023-06-04T09:11:46;2.08;;;1.77;;
36797;SDS011;22748;8.426;99.512;2023-06-04T09:14:21;4.72;;;1.63;;
36797;SDS011;22748;8.426;99.512;2023-06-04T09:16:54;5.85;;;1.85;;
36797;SDS011;22748;8.426;99.512;2023-06-04T09:19:27;6.70;;;2.30;;
36797;SDS011;22748;8.426;99.512;2023-06-04T09:21:58;10.43;;;6.60;;
36797;SDS011;22748;8.426;99.512;2023-06-04T09:24:39;5.80;;;2.83;;
36797;SDS011;22748;8.426;99.512;2023-06-04T09:27:18;6.05;;;2.53;;
36797;SDS011;22748;8.426;99.512;2023-06-04T09:29:53;5.05;;;2.70;;
36797;SDS011;22748;8.426;99.512;2023-06-04T09:32:26;4.43;;;2.70;;
36797;SDS011;22748;8.426;99.512;2023-06-04T09:35:08;5.00;;;2.42;;
36797;SDS011;22748;8.426;99.512;2023-06-04T09:37:41;4.13;;;2.40;;
36797;SDS011;22748;8.426;99.512;2023-06-04T09:40:12;5.85;;;2.95;;
36797;SDS011;22748;8.426;99.512;2023-06-04T09:42:43;5.07;;;2.58;;
36797;SDS011;22748;8.426;99.512;2023-06-04T09:45:26;4.40;;;2.08;;
36797;SDS011;22748;8.426;99.512;2023-06-04T09:47:59;3.72;;;1.85;;
36797;SDS011;22748;8.426;99.512;2023-06-04T09:50:30;4.03;;;1.85;;
36797;SDS011;22748;8.426;99.512;2023-06-04T09:53:12;9.27;;;2.97;;
36797;SDS011;22748;8.426;99.512;2023-06-04T09:55:44;5.38;;;1.83;;
36797;SDS011;22748;8.426;99.512;2023-06-04T09:58:29;5.55;;;2.25;;
36797;SDS011;22748;8.426;99.512;2023-06-04T10:01:02;5.38;;;1.55;;
36797;SDS011;22748;8.426;99.512;2023-06-04T10:03:36;4.25;;;1.83;;
36797;SDS011;22748;8.426;99.512;2023-06-04T10:06:10;2.33;;;1.77;;
36797;SDS011;22748;8.426;99.512;2023-06-04T10:08:43;5.35;;;1.98;;
36797;SDS011;22748;8.426;99.512;2023-06-04T10:11:14;2.53;;;1.30;;
36797;SDS011;22748;8.426;99.512;2023-06-04T10:13:51;2.80;;;1.30;;
36797;SDS011;22748;8.426;99.512;2023-06-04T10:16:25;5.70;;;1.70;;
36797;SDS011;22748;8.426;99.512;2023-06-04T10:18:58;4.30;;;1.95;;
36797;SDS011;22748;8.426;99.512;2023-06-04T10:21:29;7.78;;;1.92;;
36797;SDS011;22748;8.426;99.512;2023-06-04T10:24:03;4.22;;;1.70;;
36797;SDS011;22748;8.426;99.512;2023-06-04T10:26:34;3.53;;;1.83;;
36797;SDS011;22748;8.426;99.512;2023-06-04T10:29:06;5.28;;;1.70;;
36797;SDS011;22748;8.426;99.512;2023-06-04T10:34:10;7.75;;;3.58;;
36797;SDS011;22748;8.426;99.512;2023-06-04T10:36:45;6.93;;;2.38;;
36797;SDS011;22748;8.426;99.512;2023-06-04T10:39:24;6.15;;;2.15;;
36797;SDS011;22748;8.426;99.512;2023-06-04T10:41:58;7.03;;;3.05;;
36797;SDS011;22748;8.426;99.512;2023-06-04T10:44:44;5.65;;;2.53;;
36797;SDS011;22748;8.426;99.512;2023-06-04T10:47:22;4.32;;;2.35;;
36797;SDS011;22748;8.426;99.512;2023-06-04T10:50:05;4.32;;;2.65;;
36797;SDS011;22748;8.426;99.512;2023-06-04T10:52:39;6.75;;;3.05;;
36797;SDS011;22748;8.426;99.512;2023-06-04T10:55:21;6.65;;;3.22;;
36797;SDS011;22748;8.426;99.512;2023-06-04T10:57:53;6.25;;;2.50;;
36797;SDS011;22748;8.426;99.512;2023-06-04T11:00:34;5.35;;;2.92;;
36797;SDS011;22748;8.426;99.512;2023-06-04T11:03:06;11.00;;;6.38;;
36797;SDS011;22748;8.426;99.512;2023-06-04T11:05:39;14.63;;;4.95;;
36797;SDS011;22748;8.426;99.512;2023-06-04T11:08:12;17.05;;;4.45;;
36797;SDS011;22748;8.426;99.512;2023-06-04T11:10:44;17.23;;;14.88;;
36797;SDS011;22748;8.426;99.512;2023-06-04T11:13:16;21.00;;;14.23;;
36797;SDS011;22748;8.426;99.512;2023-06-04T11:15:53;12.88;;;9.27;;
36797;SDS011;22748;8.426;99.512;2023-06-04T11:18:24;6.53;;;5.50;;
36797;SDS011;22748;8.426;99.512;2023-06-04T11:23:32;6.60;;;3.40;;
36797;SDS011;22748;8.426;99.512;2023-06-04T11:26:02;4.20;;;2.88;;
36797;SDS011;22748;8.426;99.512;2023-06-04T11:28:37;6.70;;;3.03;;
36797;SDS011;22748;8.426;99.512;2023-06-04T11:31:24;5.70;;;2.78;;
36797;SDS011;22748;8.426;99.512;2023-06-04T11:33:55;12.15;;;5.57;;
36797;SDS011;22748;8.426;99.512;2023-06-04T11:36:27;7.32;;;2.83;;
36797;SDS011;22748;8.426;99.512;2023-06-04T11:38:58;8.25;;;4.10;;
36797;SDS011;22748;8.426;99.512;2023-06-04T11:41:33;7.18;;;4.47;;
36797;SDS011;22748;8.426;99.512;2023-06-04T11:44:05;9.60;;;5.28;;
36797;SDS011;22748;8.426;99.512;2023-06-04T11:46:39;8.15;;;5.80;;
36797;SDS011;22748;8.426;99.512;2023-06-04T11:49:11;8.55;;;4.47;;
36797;SDS011;22748;8.426;99.512;2023-06-04T11:51:49;8.32;;;4.38;;
36797;SDS011;22748;8.426;99.512;2023-06-04T11:54:21;16.00;;;4.20;;
36797;SDS011;22748;8.426;99.512;2023-06-04T11:56:53;6.97;;;3.90;;
36797;SDS011;22748;8.426;99.512;2023-06-04T11:59:24;7.60;;;4.07;;
36797;SDS011;22748;8.426;99.512;2023-06-04T12:01:56;8.07;;;4.20;;
36797;SDS011;22748;8.426;99.512;2023-06-04T12:04:29;8.02;;;3.92;;
36797;SDS011;22748;8.426;99.512;2023-06-04T12:07:03;10.40;;;4.35;;
36797;SDS011;22748;8.426;99.512;2023-06-04T12:09:36;11.68;;;4.45;;
36797;SDS011;22748;8.426;99.512;2023-06-04T12:12:07;8.90;;;4.32;;
36797;SDS011;22748;8.426;99.512;2023-06-04T12:14:39;9.10;;;3.63;;
36797;SDS011;22748;8.426;99.512;2023-06-04T12:17:11;7.10;;;3.80;;
36797;SDS011;22748;8.426;99.512;2023-06-04T12:19:46;10.38;;;3.97;;
36797;SDS011;22748;8.426;99.512;2023-06-04T12:22:19;7.03;;;3.97;;
36797;SDS011;22748;8.426;99.512;2023-06-04T12:24:50;8.80;;;4.50;;
36797;SDS011;22748;8.426;99.512;2023-06-04T12:27:23;7.13;;;4.28;;
36797;SDS011;22748;8.426;99.512;2023-06-04T12:29:57;9.90;;;4.22;;
36797;SDS011;22748;8.426;99.512;2023-06-04T12:32:29;8.75;;;4.78;;
36797;SDS011;22748;8.426;99.512;2023-06-04T12:35:04;7.00;;;3.92;;
36797;SDS011;22748;8.426;99.512;2023-06-04T12:37:39;11.52;;;4.93;;
36797;SDS011;22748;8.426;99.512;2023-06-04T12:40:11;12.15;;;5.07;;
36797;SDS011;22748;8.426;99.512;2023-06-04T12:42:41;7.93;;;4.40;;
36797;SDS011;22748;8.426;99.512;2023-06-04T12:45:12;8.35;;;4.55;;
36797;SDS011;22748;8.426;99.512;2023-06-04T12:47:43;11.10;;;6.03;;
36797;SDS011;22748;8.426;99.512;2023-06-04T12:50:15;11.00;;;8.30;;
36797;SDS011;22748;8.426;99.512;2023-06-04T12:52:47;28.67;;;17.48;;
36797;SDS011;22748;8.426;99.512;2023-06-04T12:55:17;29.63;;;21.55;;
36797;SDS011;22748;8.426;99.512;2023-06-04T12:57:48;36.90;;;26.90;;
36797;SDS011;22748;8.426;99.512;2023-06-04T13:00:19;43.55;;;30.33;;
36797;SDS011;22748;8.426;99.512;2023-06-04T13:05:21;45.05;;;29.48;;
36797;SDS011;22748;8.426;99.512;2023-06-04T13:07:54;40.03;;;25.87;;
36797;SDS011;22748;8.426;99.512;2023-06-04T13:10:30;31.38;;;22.25;;
36797;SDS011;22748;8.426;99.512;2023-06-04T13:13:01;27.83;;;20.27;;
36797;SDS011;22748;8.426;99.512;2023-06-04T13:15:33;26.90;;;19.48;;
36797;SDS011;22748;8.426;99.512;2023-06-04T13:18:04;32.38;;;21.08;;
36797;SDS011;22748;8.426;99.512;2023-06-04T13:23:07;24.83;;;17.85;;
36797;SDS011;22748;8.426;99.512;2023-06-04T13:25:39;27.35;;;17.08;;
36797;SDS011;22748;8.426;99.512;2023-06-04T13:30:43;24.30;;;16.08;;
36797;SDS011;22748;8.426;99.512;2023-06-04T13:33:26;21.13;;;14.57;;
36797;SDS011;22748;8.426;99.512;2023-06-04T13:35:57;40.63;;;23.70;;
36797;SDS011;22748;8.426;99.512;2023-06-04T13:38:29;42.25;;;21.88;;
36797;SDS011;22748;8.426;99.512;2023-06-04T13:41:02;34.85;;;19.55;;
36797;SDS011;22748;8.426;99.512;2023-06-04T13:43:33;32.88;;;17.40;;
36797;SDS011;22748;8.426;99.512;2023-06-04T13:48:32;25.45;;;14.98;;
36797;SDS011;22748;8.426;99.512;2023-06-04T13:51:02;23.57;;;11.73;;
36797;SDS011;22748;8.426;99.512;2023-06-04T13:53:39;40.03;;;22.70;;
36797;SDS011;22748;8.426;99.512;2023-06-04T13:56:12;36.70;;;19.73;;
36797;SDS011;22748;8.426;99.512;2023-06-04T13:58:47;23.45;;;14.13;;
36797;SDS011;22748;8.426;99.512;2023-06-04T14:01:18;17.73;;;11.20;;
36797;SDS011;22748;8.426;99.512;2023-06-04T14:03:54;13.82;;;8.40;;
36797;SDS011;22748;8.426;99.512;2023-06-04T14:06:24;14.68;;;8.93;;
36797;SDS011;22748;8.426;99.512;2023-06-04T14:09:15;15.38;;;8.80;;
36797;SDS011;22748;8.426;99.512;2023-06-04T14:11:59;13.57;;;9.00;;
36797;SDS011;22748;8.426;99.512;2023-06-04T14:14:38;17.83;;;9.43;;
36797;SDS011;22748;8.426;99.512;2023-06-04T14:17:13;13.75;;;8.82;;
36797;SDS011;22748;8.426;99.512;2023-06-04T14:19:44;13.25;;;9.23;;
36797;SDS011;22748;8.426;99.512;2023-06-04T14:22:14;15.13;;;9.43;;
36797;SDS011;22748;8.426;99.512;2023-06-04T14:24:47;14.17;;;8.47;;
36797;SDS011;22748;8.426;99.512;2023-06-04T14:27:21;13.98;;;8.38;;
36797;SDS011;22748;8.426;99.512;2023-06-04T14:29:52;15.30;;;9.93;;
36797;SDS011;22748;8.426;99.512;2023-06-04T14:32:23;19.42;;;11.40;;
36797;SDS011;22748;8.426;99.512;2023-06-04T14:34:53;19.05;;;9.80;;
36797;SDS011;22748;8.426;99.512;2023-06-04T14:37:23;17.00;;;10.20;;
36797;SDS011;22748;8.426;99.512;2023-06-04T14:39:57;21.03;;;11.77;;
36797;SDS011;22748;8.426;99.512;2023-06-04T14:42:27;16.58;;;10.68;;
36797;SDS011;22748;8.426;99.512;2023-06-04T14:44:57;16.63;;;11.10;;
36797;SDS011;22748;8.426;99.512;2023-06-04T14:47:33;18.63;;;12.40;;
36797;SDS011;22748;8.426;99.512;2023-06-04T14:50:04;22.48;;;12.70;;
36797;SDS011;22748;8.426;99.512;2023-06-04T14:52:34;17.75;;;12.45;;
36797;SDS011;22748;8.426;99.512;2023-06-04T14:55:09;20.08;;;12.52;;
36797;SDS011;22748;8.426;99.512;2023-06-04T14:57:40;16.80;;;10.88;;
36797;SDS011;22748;8.426;99.512;2023-06-04T15:00:11;16.10;;;10.52;;
36797;SDS011;22748;8.426;99.512;2023-06-04T15:02:42;18.55;;;11.10;;
36797;SDS011;22748;8.426;99.512;2023-06-04T15:05:14;16.42;;;11.48;;
36797;SDS011;22748;8.426;99.512;2023-06-04T15:07:46;16.88;;;11.00;;
36797;SDS011;22748;8.426;99.512;2023-06-04T15:10:20;21.33;;;11.55;;
36797;SDS011;22748;8.426;99.512;2023-06-04T15:12:50;18.25;;;11.02;;
36797;SDS011;22748;8.426;99.512;2023-06-04T15:15:26;19.73;;;11.30;;
36797;SDS011;22748;8.426;99.512;2023-06-04T15:18:04;22.05;;;11.38;;
36797;SDS011;22748;8.426;99.512;2023-06-04T15:20:35;18.73;;;12.00;;
36797;SDS011;22748;8.426;99.512;2023-06-04T15:23:07;23.98;;;15.60;;
36797;SDS011;22748;8.426;99.512;2023-06-04T15:25:50;21.17;;;13.55;;
36797;SDS011;22748;8.426;99.512;2023-06-04T15:28:21;20.40;;;12.43;;
36797;SDS011;22748;8.426;99.512;2023-06-04T15:30:51;22.15;;;13.48;;
36797;SDS011;22748;8.426;99.512;2023-06-04T15:33:21;19.07;;;13.17;;
36797;SDS011;22748;8.426;99.512;2023-06-04T15:35:51;22.73;;;13.27;;
36797;SDS011;22748;8.426;99.512;2023-06-04T15:38:22;18.95;;;12.65;;
36797;SDS011;22748;8.426;99.512;2023-06-04T15:40:55;21.20;;;12.40;;
36797;SDS011;22748;8.426;99.512;2023-06-04T15:43:28;17.42;;;12.07;;
36797;SDS011;22748;8.426;99.512;2023-06-04T15:45:59;19.40;;;11.50;;
36797;SDS011;22748;8.426;99.512;2023-06-04T15:48:30;19.02;;;10.45;;
36797;SDS011;22748;8.426;99.512;2023-06-04T15:51:01;18.75;;;10.52;;
36797;SDS011;22748;8.426;99.512;2023-06-04T15:53:38;17.13;;;10.32;;
36797;SDS011;22748;8.426;99.512;2023-06-04T15:56:11;14.73;;;9.73;;
36797;SDS011;22748;8.426;99.512;2023-06-04T15:58:50;13.90;;;9.57;;
36797;SDS011;22748;8.426;99.512;2023-06-04T16:01:22;16.90;;;9.63;;
36797;SDS011;22748;8.426;99.512;2023-06-04T16:03:53;12.98;;;9.30;;
36797;SDS011;22748;8.426;99.512;2023-06-04T16:06:24;13.63;;;9.25;;
36797;SDS011;22748;8.426;99.512;2023-06-04T16:09:00;14.70;;;9.88;;
36797;SDS011;22748;8.426;99.512;2023-06-04T16:11:40;17.30;;;10.65;;
36797;SDS011;22748;8.426;99.512;2023-06-04T16:14:11;13.43;;;10.43;;
36797;SDS011;22748;8.426;99.512;2023-06-04T16:16:42;14.35;;;10.65;;
36797;SDS011;22748;8.426;99.512;2023-06-04T16:19:12;18.05;;;11.07;;